sensor_id;sensor_type;location;lat;lon;timestamp;P1;durP1;ratioP1;P2;durP2;ratioP2
54959;SDS011;40860;51.710;8.736;2022-10-18T00:02:05;5.00;;;4.47;;
54959;SDS011;40860;51.710;8.736;2022-10-18T00:06:12;5.80;;;4.82;;
54959;SDS011;40860;51.710;8.736;2022-10-18T00:10:15;4.85;;;4.30;;
54959;SDS011;40860;51.710;8.736;2022-10-18T00:14:18;5.97;;;4.43;;
54959;SDS011;40860;51.710;8.736;2022-10-18T00:18:22;6.95;;;4.43;;
54959;SDS011;40860;51.710;8.736;2022-10-18T00:22:25;6.38;;;4.65;;
54959;SDS011;40860;51.710;8.736;2022-10-18T00:26:29;5.32;;;4.68;;
54959;SDS011;40860;51.710;8.736;2022-10-18T00:30:32;7.00;;;4.72;;
54959;SDS011;40860;51.710;8.736;2022-10-18T00:34:37;8.93;;;5.90;;
54959;SDS011;40860;51.710;8.736;2022-10-18T00:38:40;9.13;;;6.00;;
54959;SDS011;40860;51.710;8.736;2022-10-18T00:42:43;6.80;;;6.10;;
54959;SDS011;40860;51.710;8.736;2022-10-18T00:46:46;10.38;;;7.25;;
54959;SDS011;40860;51.710;8.736;2022-10-18T00:50:51;10.65;;;7.57;;
54959;SDS011;40860;51.710;8.736;2022-10-18T00:54:54;11.70;;;8.18;;
54959;SDS011;40860;51.710;8.736;2022-10-18T00:58:58;11.13;;;7.80;;
54959;SDS011;40860;51.710;8.736;2022-10-18T01:03:01;12.57;;;7.85;;
54959;SDS011;40860;51.710;8.736;2022-10-18T01:07:08;8.90;;;7.55;;
54959;SDS011;40860;51.710;8.736;2022-10-18T01:11:31;9.88;;;7.43;;
54959;SDS011;40860;51.710;8.736;2022-10-18T01:16:01;10.45;;;7.38;;
54959;SDS011;40860;51.710;8.736;2022-10-18T01:25:17;8.88;;;6.70;;
54959;SDS011;40860;51.710;8.736;2022-10-18T01:29:31;9.63;;;7.75;;
54959;SDS011;40860;51.710;8.736;2022-10-18T01:33:46;7.40;;;6.57;;
54959;SDS011;40860;51.710;8.736;2022-10-18T01:37:52;6.10;;;5.50;;
54959;SDS011;40860;51.710;8.736;2022-10-18T01:41:58;7.63;;;4.82;;
54959;SDS011;40860;51.710;8.736;2022-10-18T01:46:06;6.90;;;4.22;;
54959;SDS011;40860;51.710;8.736;2022-10-18T01:50:12;4.32;;;3.83;;
54959;SDS011;40860;51.710;8.736;2022-10-18T01:54:16;4.78;;;3.90;;
54959;SDS011;40860;51.710;8.736;2022-10-18T01:58:25;4.55;;;4.13;;
54959;SDS011;40860;51.710;8.736;2022-10-18T02:02:37;2.90;;;2.45;;
54959;SDS011;40860;51.710;8.736;2022-10-18T02:06:45;3.92;;;2.50;;
54959;SDS011;40860;51.710;8.736;2022-10-18T02:10:56;3.95;;;2.55;;
54959;SDS011;40860;51.710;8.736;2022-10-18T02:15:02;4.35;;;2.38;;
54959;SDS011;40860;51.710;8.736;2022-10-18T02:19:08;2.28;;;2.08;;
54959;SDS011;40860;51.710;8.736;2022-10-18T02:23:16;4.72;;;2.00;;
54959;SDS011;40860;51.710;8.736;2022-10-18T02:27:24;2.03;;;1.83;;
54959;SDS011;40860;51.710;8.736;2022-10-18T02:31:28;4.07;;;2.05;;
54959;SDS011;40860;51.710;8.736;2022-10-18T02:35:36;4.40;;;1.88;;
54959;SDS011;40860;51.710;8.736;2022-10-18T02:39:45;5.80;;;1.88;;
54959;SDS011;40860;51.710;8.736;2022-10-18T02:43:50;4.75;;;2.00;;
54959;SDS011;40860;51.710;8.736;2022-10-18T02:47:53;3.30;;;2.15;;
54959;SDS011;40860;51.710;8.736;2022-10-18T02:51:55;4.35;;;1.60;;
54959;SDS011;40860;51.710;8.736;2022-10-18T02:56:00;2.80;;;1.92;;
54959;SDS011;40860;51.710;8.736;2022-10-18T03:00:04;2.80;;;2.00;;
54959;SDS011;40860;51.710;8.736;2022-10-18T03:04:08;3.65;;;2.50;;
54959;SDS011;40860;51.710;8.736;2022-10-18T03:08:11;8.43;;;2.80;;
54959;SDS011;40860;51.710;8.736;2022-10-18T03:12:15;7.78;;;2.30;;
54959;SDS011;40860;51.710;8.736;2022-10-18T03:16:18;5.93;;;2.80;;
54959;SDS011;40860;51.710;8.736;2022-10-18T03:20:21;6.07;;;3.88;;
54959;SDS011;40860;51.710;8.736;2022-10-18T03:24:24;3.83;;;3.45;;
54959;SDS011;40860;51.710;8.736;2022-10-18T03:28:28;3.72;;;3.15;;
54959;SDS011;40860;51.710;8.736;2022-10-18T03:32:31;4.18;;;3.40;;
54959;SDS011;40860;51.710;8.736;2022-10-18T03:36:34;4.05;;;3.22;;
54959;SDS011;40860;51.710;8.736;2022-10-18T03:40:38;4.63;;;3.13;;
54959;SDS011;40860;51.710;8.736;2022-10-18T03:44:42;7.32;;;3.50;;
54959;SDS011;40860;51.710;8.736;2022-10-18T03:48:45;4.07;;;3.50;;
54959;SDS011;40860;51.710;8.736;2022-10-18T03:52:48;4.45;;;3.63;;
54959;SDS011;40860;51.710;8.736;2022-10-18T03:56:51;9.15;;;3.42;;
54959;SDS011;40860;51.710;8.736;2022-10-18T04:00:55;5.47;;;3.10;;
54959;SDS011;40860;51.710;8.736;2022-10-18T04:04:58;4.15;;;2.60;;
54959;SDS011;40860;51.710;8.736;2022-10-18T04:09:01;5.05;;;2.83;;
54959;SDS011;40860;51.710;8.736;2022-10-18T04:13:09;6.53;;;2.55;;
54959;SDS011;40860;51.710;8.736;2022-10-18T04:17:14;3.13;;;2.72;;
54959;SDS011;40860;51.710;8.736;2022-10-18T04:21:16;5.13;;;2.70;;
54959;SDS011;40860;51.710;8.736;2022-10-18T04:25:20;3.42;;;2.83;;
54959;SDS011;40860;51.710;8.736;2022-10-18T04:29:23;3.58;;;2.67;;
54959;SDS011;40860;51.710;8.736;2022-10-18T04:33:27;5.68;;;2.83;;
54959;SDS011;40860;51.710;8.736;2022-10-18T04:37:30;4.35;;;2.75;;
54959;SDS011;40860;51.710;8.736;2022-10-18T04:41:33;4.20;;;2.80;;
54959;SDS011;40860;51.710;8.736;2022-10-18T04:45:36;4.65;;;2.78;;
54959;SDS011;40860;51.710;8.736;2022-10-18T04:49:41;3.67;;;2.63;;
54959;SDS011;40860;51.710;8.736;2022-10-18T04:53:43;4.75;;;3.35;;
54959;SDS011;40860;51.710;8.736;2022-10-18T04:57:46;5.18;;;3.75;;
54959;SDS011;40860;51.710;8.736;2022-10-18T05:01:49;17.95;;;10.63;;
54959;SDS011;40860;51.710;8.736;2022-10-18T05:05:54;8.65;;;5.50;;
54959;SDS011;40860;51.710;8.736;2022-10-18T05:10:02;9.15;;;5.75;;
54959;SDS011;40860;51.710;8.736;2022-10-18T05:14:06;8.82;;;6.18;;
54959;SDS011;40860;51.710;8.736;2022-10-18T05:18:10;8.60;;;5.20;;
54959;SDS011;40860;51.710;8.736;2022-10-18T05:22:14;6.80;;;4.70;;
54959;SDS011;40860;51.710;8.736;2022-10-18T05:26:17;6.43;;;4.50;;
54959;SDS011;40860;51.710;8.736;2022-10-18T05:30:20;7.30;;;4.30;;
54959;SDS011;40860;51.710;8.736;2022-10-18T05:34:23;6.55;;;4.43;;
54959;SDS011;40860;51.710;8.736;2022-10-18T05:38:28;10.70;;;5.07;;
54959;SDS011;40860;51.710;8.736;2022-10-18T05:42:32;5.45;;;4.35;;
54959;SDS011;40860;51.710;8.736;2022-10-18T05:46:35;8.40;;;4.50;;
54959;SDS011;40860;51.710;8.736;2022-10-18T05:50:37;6.25;;;4.97;;
54959;SDS011;40860;51.710;8.736;2022-10-18T05:54:42;10.07;;;5.22;;
54959;SDS011;40860;51.710;8.736;2022-10-18T05:58:48;6.97;;;5.50;;
54959;SDS011;40860;51.710;8.736;2022-10-18T06:02:51;6.35;;;5.13;;
54959;SDS011;40860;51.710;8.736;2022-10-18T06:07:00;6.72;;;5.35;;
54959;SDS011;40860;51.710;8.736;2022-10-18T06:11:06;7.75;;;5.65;;
54959;SDS011;40860;51.710;8.736;2022-10-18T06:15:10;10.23;;;6.95;;
54959;SDS011;40860;51.710;8.736;2022-10-18T06:19:13;9.13;;;6.47;;
54959;SDS011;40860;51.710;8.736;2022-10-18T06:23:15;10.50;;;7.20;;
54959;SDS011;40860;51.710;8.736;2022-10-18T06:27:20;8.20;;;6.40;;
54959;SDS011;40860;51.710;8.736;2022-10-18T06:31:22;6.82;;;6.00;;
54959;SDS011;40860;51.710;8.736;2022-10-18T06:35:25;18.88;;;10.05;;
54959;SDS011;40860;51.710;8.736;2022-10-18T06:39:28;12.60;;;8.15;;
54959;SDS011;40860;51.710;8.736;2022-10-18T06:43:32;12.55;;;7.82;;
54959;SDS011;40860;51.710;8.736;2022-10-18T06:47:36;12.73;;;8.82;;
54959;SDS011;40860;51.710;8.736;2022-10-18T06:51:39;12.23;;;8.18;;
54959;SDS011;40860;51.710;8.736;2022-10-18T06:55:42;14.07;;;9.43;;
54959;SDS011;40860;51.710;8.736;2022-10-18T06:59:48;12.65;;;8.25;;
54959;SDS011;40860;51.710;8.736;2022-10-18T07:03:52;10.93;;;8.10;;
54959;SDS011;40860;51.710;8.736;2022-10-18T07:07:55;16.27;;;8.68;;
54959;SDS011;40860;51.710;8.736;2022-10-18T07:11:58;9.65;;;7.88;;
54959;SDS011;40860;51.710;8.736;2022-10-18T07:16:03;12.48;;;8.45;;
54959;SDS011;40860;51.710;8.736;2022-10-18T07:20:08;10.98;;;8.88;;
54959;SDS011;40860;51.710;8.736;2022-10-18T07:24:11;15.70;;;9.77;;
54959;SDS011;40860;51.710;8.736;2022-10-18T07:28:14;15.75;;;10.25;;
54959;SDS011;40860;51.710;8.736;2022-10-18T07:32:18;13.73;;;9.95;;
54959;SDS011;40860;51.710;8.736;2022-10-18T07:36:21;13.95;;;10.02;;
54959;SDS011;40860;51.710;8.736;2022-10-18T07:40:24;16.92;;;10.43;;
54959;SDS011;40860;51.710;8.736;2022-10-18T07:44:27;16.35;;;10.23;;
54959;SDS011;40860;51.710;8.736;2022-10-18T07:48:31;15.32;;;9.63;;
54959;SDS011;40860;51.710;8.736;2022-10-18T07:52:34;15.63;;;10.15;;
54959;SDS011;40860;51.710;8.736;2022-10-18T07:56:37;15.13;;;10.52;;
54959;SDS011;40860;51.710;8.736;2022-10-18T08:00:40;14.63;;;10.73;;
54959;SDS011;40860;51.710;8.736;2022-10-18T08:04:44;15.05;;;10.20;;
54959;SDS011;40860;51.710;8.736;2022-10-18T08:08:47;14.70;;;10.35;;
54959;SDS011;40860;51.710;8.736;2022-10-18T08:12:50;13.88;;;9.88;;
54959;SDS011;40860;51.710;8.736;2022-10-18T08:16:55;14.05;;;9.88;;
54959;SDS011;40860;51.710;8.736;2022-10-18T08:20:59;12.98;;;8.15;;
54959;SDS011;40860;51.710;8.736;2022-10-18T08:25:03;12.70;;;8.15;;
54959;SDS011;40860;51.710;8.736;2022-10-18T08:29:06;14.25;;;8.55;;
54959;SDS011;40860;51.710;8.736;2022-10-18T08:33:24;15.32;;;9.85;;
54959;SDS011;40860;51.710;8.736;2022-10-18T08:37:28;11.30;;;7.65;;
54959;SDS011;40860;51.710;8.736;2022-10-18T08:41:39;10.27;;;7.72;;
54959;SDS011;40860;51.710;8.736;2022-10-18T08:45:52;14.45;;;8.52;;
54959;SDS011;40860;51.710;8.736;2022-10-18T08:49:57;11.27;;;7.93;;
54959;SDS011;40860;51.710;8.736;2022-10-18T08:54:05;10.93;;;8.27;;
54959;SDS011;40860;51.710;8.736;2022-10-18T08:58:14;11.82;;;8.20;;
54959;SDS011;40860;51.710;8.736;2022-10-18T09:02:25;11.85;;;8.13;;
54959;SDS011;40860;51.710;8.736;2022-10-18T09:06:42;11.82;;;8.38;;
54959;SDS011;40860;51.710;8.736;2022-10-18T09:10:53;16.60;;;10.35;;
54959;SDS011;40860;51.710;8.736;2022-10-18T09:15:11;15.40;;;10.07;;
54959;SDS011;40860;51.710;8.736;2022-10-18T09:19:19;15.70;;;10.07;;
54959;SDS011;40860;51.710;8.736;2022-10-18T09:23:31;16.15;;;10.73;;
54959;SDS011;40860;51.710;8.736;2022-10-18T09:27:47;16.55;;;11.40;;
54959;SDS011;40860;51.710;8.736;2022-10-18T09:31:54;17.33;;;11.25;;
54959;SDS011;40860;51.710;8.736;2022-10-18T09:36:05;24.90;;;14.90;;
54959;SDS011;40860;51.710;8.736;2022-10-18T09:40:13;26.90;;;14.32;;
54959;SDS011;40860;51.710;8.736;2022-10-18T09:44:21;28.02;;;16.55;;
54959;SDS011;40860;51.710;8.736;2022-10-18T09:48:27;25.88;;;17.35;;
54959;SDS011;40860;51.710;8.736;2022-10-18T09:52:34;33.00;;;18.98;;
54959;SDS011;40860;51.710;8.736;2022-10-18T09:56:43;29.38;;;18.65;;
54959;SDS011;40860;51.710;8.736;2022-10-18T10:00:51;36.28;;;21.83;;
54959;SDS011;40860;51.710;8.736;2022-10-18T10:04:55;38.25;;;23.27;;
54959;SDS011;40860;51.710;8.736;2022-10-18T10:08:59;39.60;;;22.88;;
54959;SDS011;40860;51.710;8.736;2022-10-18T10:13:13;35.60;;;22.45;;
54959;SDS011;40860;51.710;8.736;2022-10-18T10:17:22;44.10;;;26.83;;
54959;SDS011;40860;51.710;8.736;2022-10-18T10:21:27;39.38;;;25.95;;
54959;SDS011;40860;51.710;8.736;2022-10-18T10:25:31;39.95;;;25.75;;
54959;SDS011;40860;51.710;8.736;2022-10-18T10:29:46;40.45;;;26.73;;
54959;SDS011;40860;51.710;8.736;2022-10-18T10:34:00;43.10;;;27.38;;
54959;SDS011;40860;51.710;8.736;2022-10-18T10:38:05;41.33;;;26.88;;
54959;SDS011;40860;51.710;8.736;2022-10-18T10:42:10;38.75;;;27.40;;
54959;SDS011;40860;51.710;8.736;2022-10-18T10:46:16;37.70;;;27.83;;
54959;SDS011;40860;51.710;8.736;2022-10-18T10:50:25;43.75;;;28.27;;
54959;SDS011;40860;51.710;8.736;2022-10-18T10:54:29;46.08;;;30.40;;
54959;SDS011;40860;51.710;8.736;2022-10-18T10:58:36;43.72;;;28.85;;
54959;SDS011;40860;51.710;8.736;2022-10-18T11:02:41;39.58;;;27.98;;
54959;SDS011;40860;51.710;8.736;2022-10-18T11:07:08;42.25;;;28.95;;
54959;SDS011;40860;51.710;8.736;2022-10-18T11:11:18;38.03;;;27.27;;
54959;SDS011;40860;51.710;8.736;2022-10-18T11:15:28;41.15;;;28.35;;
54959;SDS011;40860;51.710;8.736;2022-10-18T11:19:37;38.50;;;27.63;;
54959;SDS011;40860;51.710;8.736;2022-10-18T11:23:52;38.00;;;28.05;;
54959;SDS011;40860;51.710;8.736;2022-10-18T11:27:58;41.15;;;29.15;;
54959;SDS011;40860;51.710;8.736;2022-10-18T11:32:11;36.90;;;26.33;;
54959;SDS011;40860;51.710;8.736;2022-10-18T11:36:23;37.15;;;26.10;;
54959;SDS011;40860;51.710;8.736;2022-10-18T11:40:43;34.53;;;25.15;;
54959;SDS011;40860;51.710;8.736;2022-10-18T11:44:57;38.13;;;25.50;;
54959;SDS011;40860;51.710;8.736;2022-10-18T11:49:10;34.78;;;25.50;;
54959;SDS011;40860;51.710;8.736;2022-10-18T11:53:34;37.50;;;26.25;;
54959;SDS011;40860;51.710;8.736;2022-10-18T11:57:53;40.17;;;25.67;;
54959;SDS011;40860;51.710;8.736;2022-10-18T12:02:12;36.00;;;26.20;;
54959;SDS011;40860;51.710;8.736;2022-10-18T12:06:31;41.17;;;26.73;;
54959;SDS011;40860;51.710;8.736;2022-10-18T12:10:36;40.47;;;27.15;;
54959;SDS011;40860;51.710;8.736;2022-10-18T12:15:04;42.47;;;27.20;;
54959;SDS011;40860;51.710;8.736;2022-10-18T12:19:16;36.20;;;25.35;;
54959;SDS011;40860;51.710;8.736;2022-10-18T12:23:30;39.83;;;26.92;;
54959;SDS011;40860;51.710;8.736;2022-10-18T12:27:40;39.63;;;26.90;;
54959;SDS011;40860;51.710;8.736;2022-10-18T12:31:51;40.88;;;27.65;;
54959;SDS011;40860;51.710;8.736;2022-10-18T12:35:59;36.45;;;28.00;;
54959;SDS011;40860;51.710;8.736;2022-10-18T12:40:13;39.25;;;26.35;;
54959;SDS011;40860;51.710;8.736;2022-10-18T12:44:23;38.92;;;26.33;;
54959;SDS011;40860;51.710;8.736;2022-10-18T12:48:33;34.90;;;25.30;;
54959;SDS011;40860;51.710;8.736;2022-10-18T12:52:38;35.30;;;23.77;;
54959;SDS011;40860;51.710;8.736;2022-10-18T12:56:42;35.65;;;23.88;;
54959;SDS011;40860;51.710;8.736;2022-10-18T13:00:50;34.65;;;24.70;;
54959;SDS011;40860;51.710;8.736;2022-10-18T13:14:40;36.95;;;26.08;;
54959;SDS011;40860;51.710;8.736;2022-10-18T13:19:16;37.03;;;24.35;;
54959;SDS011;40860;51.710;8.736;2022-10-18T13:23:27;28.05;;;19.27;;
54959;SDS011;40860;51.710;8.736;2022-10-18T13:27:41;28.15;;;19.90;;
54959;SDS011;40860;51.710;8.736;2022-10-18T13:31:51;27.23;;;18.35;;
54959;SDS011;40860;51.710;8.736;2022-10-18T13:36:01;23.67;;;16.52;;
54959;SDS011;40860;51.710;8.736;2022-10-18T13:40:13;19.73;;;14.70;;
54959;SDS011;40860;51.710;8.736;2022-10-18T13:44:25;19.92;;;14.05;;
54959;SDS011;40860;51.710;8.736;2022-10-18T13:48:48;17.83;;;12.18;;
54959;SDS011;40860;51.710;8.736;2022-10-18T13:53:04;13.82;;;10.45;;
54959;SDS011;40860;51.710;8.736;2022-10-18T13:57:25;14.38;;;9.52;;
54959;SDS011;40860;51.710;8.736;2022-10-18T14:01:43;14.43;;;9.48;;
54959;SDS011;40860;51.710;8.736;2022-10-18T14:05:56;11.82;;;8.55;;
54959;SDS011;40860;51.710;8.736;2022-10-18T14:10:05;13.95;;;7.80;;
54959;SDS011;40860;51.710;8.736;2022-10-18T14:14:16;11.57;;;7.85;;
54959;SDS011;40860;51.710;8.736;2022-10-18T14:18:26;14.32;;;7.47;;
54959;SDS011;40860;51.710;8.736;2022-10-18T14:22:35;12.32;;;7.30;;
54959;SDS011;40860;51.710;8.736;2022-10-18T14:26:41;10.93;;;7.10;;
54959;SDS011;40860;51.710;8.736;2022-10-18T14:30:51;14.25;;;8.40;;
54959;SDS011;40860;51.710;8.736;2022-10-18T14:34:55;14.20;;;8.50;;
54959;SDS011;40860;51.710;8.736;2022-10-18T14:39:20;13.68;;;8.35;;
54959;SDS011;40860;51.710;8.736;2022-10-18T14:43:29;13.93;;;9.23;;
54959;SDS011;40860;51.710;8.736;2022-10-18T14:50:55;13.30;;;8.57;;
54959;SDS011;40860;51.710;8.736;2022-10-18T14:55:00;14.43;;;8.20;;
54959;SDS011;40860;51.710;8.736;2022-10-18T14:59:04;15.43;;;7.70;;
54959;SDS011;40860;51.710;8.736;2022-10-18T15:03:16;9.65;;;6.80;;
54959;SDS011;40860;51.710;8.736;2022-10-18T15:07:21;13.32;;;6.93;;
54959;SDS011;40860;51.710;8.736;2022-10-18T15:11:25;11.25;;;6.32;;
54959;SDS011;40860;51.710;8.736;2022-10-18T15:15:30;13.20;;;6.68;;
54959;SDS011;40860;51.710;8.736;2022-10-18T15:19:35;11.00;;;6.18;;
54959;SDS011;40860;51.710;8.736;2022-10-18T15:23:41;12.13;;;5.70;;
54959;SDS011;40860;51.710;8.736;2022-10-18T15:27:44;12.38;;;6.13;;
54959;SDS011;40860;51.710;8.736;2022-10-18T15:31:49;12.05;;;5.88;;
54959;SDS011;40860;51.710;8.736;2022-10-18T15:35:52;9.73;;;5.57;;
54959;SDS011;40860;51.710;8.736;2022-10-18T15:44:46;16.25;;;6.00;;
54959;SDS011;40860;51.710;8.736;2022-10-18T15:48:51;12.00;;;5.78;;
54959;SDS011;40860;51.710;8.736;2022-10-18T15:52:54;9.50;;;5.18;;
54959;SDS011;40860;51.710;8.736;2022-10-18T15:56:57;10.38;;;5.22;;
54959;SDS011;40860;51.710;8.736;2022-10-18T16:01:01;11.45;;;5.30;;
54959;SDS011;40860;51.710;8.736;2022-10-18T16:05:05;15.32;;;5.55;;
54959;SDS011;40860;51.710;8.736;2022-10-18T16:09:14;10.55;;;5.00;;
54959;SDS011;40860;51.710;8.736;2022-10-18T16:13:18;13.00;;;5.50;;
54959;SDS011;40860;51.710;8.736;2022-10-18T16:17:23;11.27;;;5.53;;
54959;SDS011;40860;51.710;8.736;2022-10-18T16:21:27;13.27;;;5.60;;
54959;SDS011;40860;51.710;8.736;2022-10-18T16:25:31;15.65;;;5.97;;
54959;SDS011;40860;51.710;8.736;2022-10-18T16:29:34;12.60;;;5.90;;
54959;SDS011;40860;51.710;8.736;2022-10-18T16:33:38;12.60;;;5.78;;
54959;SDS011;40860;51.710;8.736;2022-10-18T16:37:41;12.73;;;7.00;;
54959;SDS011;40860;51.710;8.736;2022-10-18T16:41:44;15.45;;;6.72;;
54959;SDS011;40860;51.710;8.736;2022-10-18T16:45:47;15.90;;;5.97;;
54959;SDS011;40860;51.710;8.736;2022-10-18T16:49:52;9.43;;;6.00;;
54959;SDS011;40860;51.710;8.736;2022-10-18T16:53:55;11.80;;;5.72;;
54959;SDS011;40860;51.710;8.736;2022-10-18T16:57:58;13.85;;;5.72;;
54959;SDS011;40860;51.710;8.736;2022-10-18T17:02:04;13.40;;;5.60;;
54959;SDS011;40860;51.710;8.736;2022-10-18T17:06:12;12.52;;;5.85;;
54959;SDS011;40860;51.710;8.736;2022-10-18T17:10:18;13.00;;;5.45;;
54959;SDS011;40860;51.710;8.736;2022-10-18T17:14:24;12.15;;;5.40;;
54959;SDS011;40860;51.710;8.736;2022-10-18T17:18:27;16.02;;;6.28;;
54959;SDS011;40860;51.710;8.736;2022-10-18T17:22:32;13.18;;;5.80;;
54959;SDS011;40860;51.710;8.736;2022-10-18T17:26:35;9.45;;;5.43;;
54959;SDS011;40860;51.710;8.736;2022-10-18T17:30:37;10.52;;;5.97;;
54959;SDS011;40860;51.710;8.736;2022-10-18T17:34:40;12.65;;;6.20;;
54959;SDS011;40860;51.710;8.736;2022-10-18T17:38:45;10.75;;;5.45;;
54959;SDS011;40860;51.710;8.736;2022-10-18T17:42:51;10.93;;;5.53;;
54959;SDS011;40860;51.710;8.736;2022-10-18T17:46:54;16.80;;;5.32;;
54959;SDS011;40860;51.710;8.736;2022-10-18T17:50:58;11.07;;;5.28;;
54959;SDS011;40860;51.710;8.736;2022-10-18T17:55:03;34.47;;;17.88;;
54959;SDS011;40860;51.710;8.736;2022-10-18T17:59:06;14.45;;;5.93;;
54959;SDS011;40860;51.710;8.736;2022-10-18T18:03:09;10.57;;;5.40;;
54959;SDS011;40860;51.710;8.736;2022-10-18T18:07:13;12.05;;;5.28;;
54959;SDS011;40860;51.710;8.736;2022-10-18T18:11:17;12.45;;;5.15;;
54959;SDS011;40860;51.710;8.736;2022-10-18T18:15:20;12.15;;;5.65;;
54959;SDS011;40860;51.710;8.736;2022-10-18T18:19:23;12.80;;;5.45;;
54959;SDS011;40860;51.710;8.736;2022-10-18T18:23:26;14.07;;;5.63;;
54959;SDS011;40860;51.710;8.736;2022-10-18T18:27:30;9.52;;;5.30;;
54959;SDS011;40860;51.710;8.736;2022-10-18T18:31:33;15.18;;;5.75;;
54959;SDS011;40860;51.710;8.736;2022-10-18T18:35:41;14.70;;;5.63;;
54959;SDS011;40860;51.710;8.736;2022-10-18T18:39:44;17.42;;;6.18;;
54959;SDS011;40860;51.710;8.736;2022-10-18T18:43:50;16.20;;;5.72;;
54959;SDS011;40860;51.710;8.736;2022-10-18T18:47:54;11.98;;;5.50;;
54959;SDS011;40860;51.710;8.736;2022-10-18T18:51:57;16.42;;;6.95;;
54959;SDS011;40860;51.710;8.736;2022-10-18T18:56:01;16.58;;;7.22;;
54959;SDS011;40860;51.710;8.736;2022-10-18T19:00:06;18.05;;;7.68;;
54959;SDS011;40860;51.710;8.736;2022-10-18T19:04:10;12.43;;;6.93;;
54959;SDS011;40860;51.710;8.736;2022-10-18T19:08:13;14.40;;;6.95;;
54959;SDS011;40860;51.710;8.736;2022-10-18T19:12:16;14.10;;;7.10;;
54959;SDS011;40860;51.710;8.736;2022-10-18T19:16:24;14.32;;;8.20;;
54959;SDS011;40860;51.710;8.736;2022-10-18T19:20:29;16.48;;;7.72;;
54959;SDS011;40860;51.710;8.736;2022-10-18T19:24:32;15.43;;;7.82;;
54959;SDS011;40860;51.710;8.736;2022-10-18T19:28:35;18.95;;;7.00;;
54959;SDS011;40860;51.710;8.736;2022-10-18T19:32:39;14.85;;;7.38;;
54959;SDS011;40860;51.710;8.736;2022-10-18T19:36:43;12.10;;;7.30;;
54959;SDS011;40860;51.710;8.736;2022-10-18T19:40:47;12.55;;;7.22;;
54959;SDS011;40860;51.710;8.736;2022-10-18T19:44:54;16.23;;;8.05;;
54959;SDS011;40860;51.710;8.736;2022-10-18T19:48:58;14.07;;;7.88;;
54959;SDS011;40860;51.710;8.736;2022-10-18T19:53:01;12.98;;;7.53;;
54959;SDS011;40860;51.710;8.736;2022-10-18T19:57:04;12.93;;;7.40;;
54959;SDS011;40860;51.710;8.736;2022-10-18T20:01:07;15.82;;;7.60;;
54959;SDS011;40860;51.710;8.736;2022-10-18T20:05:12;15.25;;;7.05;;
54959;SDS011;40860;51.710;8.736;2022-10-18T20:09:14;18.88;;;7.57;;
54959;SDS011;40860;51.710;8.736;2022-10-18T20:13:21;14.90;;;7.65;;
54959;SDS011;40860;51.710;8.736;2022-10-18T20:17:23;14.90;;;8.80;;
54959;SDS011;40860;51.710;8.736;2022-10-18T20:21:28;15.70;;;8.05;;
54959;SDS011;40860;51.710;8.736;2022-10-18T20:25:34;19.35;;;8.50;;
54959;SDS011;40860;51.710;8.736;2022-10-18T20:29:37;15.25;;;7.93;;
54959;SDS011;40860;51.710;8.736;2022-10-18T20:33:40;15.98;;;8.10;;
54959;SDS011;40860;51.710;8.736;2022-10-18T20:37:46;17.30;;;8.73;;
54959;SDS011;40860;51.710;8.736;2022-10-18T20:41:49;15.20;;;8.10;;
54959;SDS011;40860;51.710;8.736;2022-10-18T20:45:54;13.27;;;8.45;;
54959;SDS011;40860;51.710;8.736;2022-10-18T20:49:57;14.60;;;9.20;;
54959;SDS011;40860;51.710;8.736;2022-10-18T20:54:02;16.25;;;9.30;;
54959;SDS011;40860;51.710;8.736;2022-10-18T20:58:11;19.70;;;9.15;;
54959;SDS011;40860;51.710;8.736;2022-10-18T21:02:14;16.67;;;8.95;;
54959;SDS011;40860;51.710;8.736;2022-10-18T21:06:19;15.93;;;9.20;;
54959;SDS011;40860;51.710;8.736;2022-10-18T21:10:24;17.92;;;9.15;;
54959;SDS011;40860;51.710;8.736;2022-10-18T21:14:27;13.88;;;8.57;;
54959;SDS011;40860;51.710;8.736;2022-10-18T21:18:31;13.82;;;8.73;;
54959;SDS011;40860;51.710;8.736;2022-10-18T21:22:36;16.13;;;9.80;;
54959;SDS011;40860;51.710;8.736;2022-10-18T21:26:40;18.33;;;9.48;;
54959;SDS011;40860;51.710;8.736;2022-10-18T21:30:43;22.92;;;9.65;;
54959;SDS011;40860;51.710;8.736;2022-10-18T21:34:46;16.38;;;10.23;;
54959;SDS011;40860;51.710;8.736;2022-10-18T21:38:48;15.15;;;9.15;;
54959;SDS011;40860;51.710;8.736;2022-10-18T21:42:53;14.20;;;9.73;;
54959;SDS011;40860;51.710;8.736;2022-10-18T21:46:56;16.98;;;9.57;;
54959;SDS011;40860;51.710;8.736;2022-10-18T21:51:00;13.75;;;9.38;;
54959;SDS011;40860;51.710;8.736;2022-10-18T21:55:05;21.52;;;11.88;;
54959;SDS011;40860;51.710;8.736;2022-10-18T21:59:10;20.45;;;10.18;;
54959;SDS011;40860;51.710;8.736;2022-10-18T22:03:13;20.27;;;10.02;;
54959;SDS011;40860;51.710;8.736;2022-10-18T22:07:16;18.25;;;9.77;;
54959;SDS011;40860;51.710;8.736;2022-10-18T22:11:20;12.65;;;8.88;;
54959;SDS011;40860;51.710;8.736;2022-10-18T22:15:27;16.55;;;9.63;;
54959;SDS011;40860;51.710;8.736;2022-10-18T22:19:30;18.88;;;10.18;;
54959;SDS011;40860;51.710;8.736;2022-10-18T22:23:33;16.73;;;9.73;;
54959;SDS011;40860;51.710;8.736;2022-10-18T22:27:37;15.88;;;9.20;;
54959;SDS011;40860;51.710;8.736;2022-10-18T22:31:42;18.40;;;9.07;;
54959;SDS011;40860;51.710;8.736;2022-10-18T22:35:47;17.52;;;9.77;;
54959;SDS011;40860;51.710;8.736;2022-10-18T22:39:50;14.00;;;9.35;;
54959;SDS011;40860;51.710;8.736;2022-10-18T22:43:53;17.25;;;9.52;;
54959;SDS011;40860;51.710;8.736;2022-10-18T22:48:02;14.45;;;9.95;;
54959;SDS011;40860;51.710;8.736;2022-10-18T22:52:06;17.77;;;10.20;;
54959;SDS011;40860;51.710;8.736;2022-10-18T22:56:11;15.00;;;9.50;;
54959;SDS011;40860;51.710;8.736;2022-10-18T23:00:15;17.85;;;9.13;;
54959;SDS011;40860;51.710;8.736;2022-10-18T23:04:19;14.80;;;9.18;;
54959;SDS011;40860;51.710;8.736;2022-10-18T23:08:22;15.40;;;8.73;;
54959;SDS011;40860;51.710;8.736;2022-10-18T23:12:25;18.70;;;9.05;;
54959;SDS011;40860;51.710;8.736;2022-10-18T23:16:28;17.88;;;9.13;;
54959;SDS011;40860;51.710;8.736;2022-10-18T23:20:33;19.85;;;9.25;;
54959;SDS011;40860;51.710;8.736;2022-10-18T23:24:36;14.45;;;9.35;;
54959;SDS011;40860;51.710;8.736;2022-10-18T23:28:39;14.48;;;8.88;;
54959;SDS011;40860;51.710;8.736;2022-10-18T23:32:43;14.02;;;9.20;;
54959;SDS011;40860;51.710;8.736;2022-10-18T23:36:47;15.57;;;10.20;;
54959;SDS011;40860;51.710;8.736;2022-10-18T23:40:50;16.40;;;10.65;;
54959;SDS011;40860;51.710;8.736;2022-10-18T23:44:53;17.55;;;10.45;;
54959;SDS011;40860;51.710;8.736;2022-10-18T23:48:56;17.10;;;10.38;;
54959;SDS011;40860;51.710;8.736;2022-10-18T23:53:00;16.50;;;9.82;;
54959;SDS011;40860;51.710;8.736;2022-10-18T23:57:03;15.07;;;9.88;;
